Time;durP1;ratioP1;P1;durP2;ratioP2;P2;SDS_P1;SDS_P2;PMS_P1;PMS_P2;Temp;Humidity;BMP_temperature;BMP_pressure;BME280_temperature;BME280_humidity;BME280_pressure;Samples;Min_cycle;Max_cycle;Signal;HPM_P1;HPM_P2
2021/06/07 00:02:16;;;;;;;18.33;13.93;;;;;;;16.76;64.26;101146.38;5103819;28;20031;-67
2021/06/07 00:04:41;;;;;;;15.90;13.23;;;;;;;16.77;64.21;101159.47;5103748;28;20024;-67
2021/06/07 00:07:09;;;;;;;19.08;14.02;;;;;;;16.78;64.08;101161.19;5103635;28;20035;-68
2021/06/07 00:09:35;;;;;;;17.77;13.10;;;;;;;16.77;64.24;101158.59;5103673;28;20016;-68
2021/06/07 00:12:07;;;;;;;14.77;12.98;;;;;;;16.73;64.37;101157.78;5103268;28;20028;-68
2021/06/07 00:14:34;;;;;;;16.88;14.05;;;;;;;16.69;65.05;101166.63;5103635;28;20069;-67
2021/06/07 00:17:00;;;;;;;15.75;12.98;;;;;;;16.62;65.32;101165.88;5103614;28;20039;-68
2021/06/07 00:19:28;;;;;;;16.67;13.85;;;;;;;16.64;65.51;101158.00;5103310;28;20107;-68
2021/06/07 00:21:54;;;;;;;17.10;14.05;;;;;;;16.58;65.82;101154.59;5103441;28;20020;-69
2021/06/07 00:24:21;;;;;;;18.10;14.73;;;;;;;16.59;65.63;101161.59;5103679;28;20024;-68
2021/06/07 00:26:47;;;;;;;18.48;14.60;;;;;;;16.57;65.95;101152.00;5103344;28;20023;-68
2021/06/07 00:29:13;;;;;;;17.20;14.70;;;;;;;16.54;66.05;101152.06;5103447;28;20024;-68
2021/06/07 00:31:39;;;;;;;18.60;14.77;;;;;;;16.48;66.20;101147.84;5103415;28;20099;-68
2021/06/07 00:34:06;;;;;;;21.88;14.98;;;;;;;16.53;66.11;101150.38;5103512;28;20099;-68
2021/06/07 00:36:32;;;;;;;22.17;14.18;;;;;;;16.52;65.98;101144.25;5103485;28;20073;-68
2021/06/07 00:38:58;;;;;;;19.33;15.18;;;;;;;16.51;65.89;101150.41;5103106;28;20515;-68
2021/06/07 00:41:23;;;;;;;16.92;15.13;;;;;;;16.42;66.41;101137.50;5103271;28;20050;-68
2021/06/07 00:43:57;;;;;;;18.55;15.15;;;;;;;16.41;66.51;101146.22;5103306;28;20035;-68
2021/06/07 00:46:22;;;;;;;19.75;15.15;;;;;;;16.37;66.83;101147.19;5105711;28;20020;-67
2021/06/07 00:48:48;;;;;;;21.70;15.60;;;;;;;16.30;66.76;101138.59;5107135;28;20043;-68
2021/06/07 00:51:14;;;;;;;23.27;14.80;;;;;;;16.33;66.65;101143.78;5107022;28;20020;-67
2021/06/07 00:53:40;;;;;;;19.98;14.63;;;;;;;16.33;66.45;101144.66;5107055;28;20075;-69
2021/06/07 00:56:08;;;;;;;22.02;15.18;;;;;;;16.30;66.47;101149.94;5106747;28;20464;-68
2021/06/07 00:58:40;;;;;;;21.35;16.40;;;;;;;16.23;66.25;101143.09;5107026;28;20050;-68
2021/06/07 01:01:08;;;;;;;20.42;16.33;;;;;;;16.23;66.61;101145.72;5106965;28;20026;-68
2021/06/07 01:03:35;;;;;;;25.05;18.23;;;;;;;16.21;66.72;101137.06;5106752;28;20024;-68
2021/06/07 01:06:02;;;;;;;23.27;16.88;;;;;;;16.21;66.98;101142.28;5106796;28;20046;-68
2021/06/07 01:08:28;;;;;;;21.58;17.35;;;;;;;16.21;67.08;101142.28;5106660;28;20045;-68
2021/06/07 01:10:55;;;;;;;19.30;16.17;;;;;;;16.20;67.21;101144.03;5106482;28;20024;-68
2021/06/07 01:13:22;;;;;;;22.80;18.83;;;;;;;16.19;67.30;101133.59;5106653;28;20024;-68
2021/06/07 01:15:50;;;;;;;22.58;17.67;;;;;;;16.19;67.48;101144.94;5106629;28;20024;-69
2021/06/07 01:18:17;;;;;;;22.65;18.55;;;;;;;16.20;67.50;101138.78;5106350;28;20040;-67
2021/06/07 01:20:43;;;;;;;24.35;19.27;;;;;;;16.18;67.43;101129.25;5106504;28;20024;-68
2021/06/07 01:23:09;;;;;;;28.30;19.77;;;;;;;16.26;67.60;101144.81;5106550;28;20020;-67
2021/06/07 01:25:37;;;;;;;21.88;18.58;;;;;;;16.23;67.57;101133.50;5106076;28;20024;-69
2021/06/07 01:28:04;;;;;;;26.05;20.00;;;;;;;16.23;67.88;101132.63;5106671;28;20117;-67
2021/06/07 01:30:34;;;;;;;28.48;19.17;;;;;;;16.29;67.78;101142.13;5106661;28;20016;-67
2021/06/07 01:33:01;;;;;;;23.73;18.25;;;;;;;16.31;67.77;101140.34;5106432;28;20105;-68
2021/06/07 01:35:27;;;;;;;22.23;19.58;;;;;;;16.34;67.72;101148.16;5106323;28;20024;-67
2021/06/07 01:37:55;;;;;;;23.90;17.73;;;;;;;16.29;67.60;101126.41;5106274;28;20050;-69
2021/06/07 01:40:24;;;;;;;23.30;18.10;;;;;;;16.37;67.56;101139.34;5106026;28;20087;-69
2021/06/07 01:42:50;;;;;;;24.73;17.67;;;;;;;16.38;67.77;101141.06;5106207;28;20103;-68
2021/06/07 01:45:19;;;;;;;22.05;17.80;;;;;;;16.35;67.71;101142.88;5106026;28;20027;-68
2021/06/07 01:47:45;;;;;;;18.83;16.83;;;;;;;16.30;68.00;101138.59;5104599;28;20043;-67
2021/06/07 01:50:11;;;;;;;21.10;17.20;;;;;;;16.30;68.17;101131.63;5106080;28;20028;-67
2021/06/07 01:52:44;;;;;;;18.58;16.30;;;;;;;16.30;68.16;101133.34;5105619;28;20036;-68
2021/06/07 01:55:21;;;;;;;20.38;16.80;;;;;;;16.31;68.16;101135.94;5106026;28;20031;-67
2021/06/07 01:57:48;;;;;;;19.58;17.48;;;;;;;16.31;68.27;101130.72;5104702;28;20046;-68
2021/06/07 02:00:21;;;;;;;23.05;17.88;;;;;;;16.32;68.17;101131.59;5105925;28;20107;-67
2021/06/07 02:02:47;;;;;;;21.45;16.73;;;;;;;16.32;68.15;101132.44;5105983;28;20024;-67
2021/06/07 02:05:15;;;;;;;22.60;18.35;;;;;;;16.35;68.13;101140.25;5105765;28;20048;-68
2021/06/07 02:07:46;;;;;;;22.70;18.35;;;;;;;16.28;68.31;101119.44;5105582;28;20555;-68
2021/06/07 02:10:13;;;;;;;20.00;17.90;;;;;;;16.31;68.24;101122.84;5105660;28;20032;-68
2021/06/07 02:12:39;;;;;;;23.67;17.50;;;;;;;16.34;68.23;101125.41;5105262;28;20028;-68
2021/06/07 02:15:08;;;;;;;23.75;18.40;;;;;;;16.31;68.32;101122.84;5105545;28;20079;-69
2021/06/07 02:17:33;;;;;;;22.75;18.80;;;;;;;16.27;68.44;101122.94;5105086;28;20056;-69
2021/06/07 02:19:59;;;;;;;22.13;19.05;;;;;;;16.30;68.33;101123.75;5105287;28;20059;-68
2021/06/07 02:22:24;;;;;;;24.85;19.02;;;;;;;16.23;68.54;101119.53;5105605;28;20031;-68
2021/06/07 02:24:49;;;;;;;23.70;19.23;;;;;;;16.21;68.53;101116.94;5106006;28;20024;-68
2021/06/07 02:27:15;;;;;;;25.13;20.17;;;;;;;16.28;68.48;101125.53;5105527;28;20103;-68
2021/06/07 02:29:40;;;;;;;25.02;20.08;;;;;;;16.28;68.47;101130.78;5105344;28;20412;-68
2021/06/07 02:32:06;;;;;;;24.58;19.88;;;;;;;16.29;68.65;101131.66;5105047;28;20026;-68
2021/06/07 02:34:31;;;;;;;25.80;18.70;;;;;;;16.30;68.50;101134.22;5103625;28;20036;-68
2021/06/07 02:36:57;;;;;;;20.48;17.63;;;;;;;16.28;68.67;101137.78;5105309;28;20055;-67
2021/06/07 02:39:23;;;;;;;19.98;17.85;;;;;;;16.30;68.84;101131.63;5105032;28;20021;-68
2021/06/07 02:41:48;;;;;;;21.35;17.48;;;;;;;16.34;68.54;101133.25;5104935;28;20028;-68
2021/06/07 02:44:20;;;;;;;24.77;17.60;;;;;;;16.39;68.50;101134.94;5104842;28;20023;-67
2021/06/07 02:46:45;;;;;;;19.17;17.13;;;;;;;16.40;68.52;101129.66;5104992;28;20024;-67
2021/06/07 02:49:11;;;;;;;20.70;16.67;;;;;;;16.37;68.34;101128.88;5104851;28;20082;-67
2021/06/07 02:51:36;;;;;;;23.08;18.02;;;;;;;16.37;68.56;101134.09;5104711;28;20036;-68
2021/06/07 02:54:01;;;;;;;20.02;16.20;;;;;;;16.31;68.49;101128.09;5104683;28;20032;-68
2021/06/07 02:56:27;;;;;;;21.10;17.05;;;;;;;16.31;68.48;101129.88;5104447;28;20058;-68
2021/06/07 02:58:52;;;;;;;20.20;16.45;;;;;;;16.18;68.60;101119.63;5104761;28;20028;-68
2021/06/07 03:01:18;;;;;;;20.95;17.55;;;;;;;16.17;69.13;101123.13;5104790;28;20024;-68
2021/06/07 03:03:43;;;;;;;21.73;16.65;;;;;;;16.09;69.68;101123.31;5104614;28;20020;-68
2021/06/07 03:06:09;;;;;;;22.90;19.15;;;;;;;16.13;69.51;101112.75;5104594;28;20035;-68
2021/06/07 03:08:35;;;;;;;24.70;19.58;;;;;;;16.19;69.84;101129.22;5104316;28;20035;-68
2021/06/07 03:11:07;;;;;;;25.67;19.10;;;;;;;16.25;69.71;101125.59;5103109;28;20324;-68
2021/06/07 03:13:34;;;;;;;24.80;20.35;;;;;;;16.31;69.97;101119.38;5104625;28;20156;-68
2021/06/07 03:16:00;;;;;;;25.30;20.58;;;;;;;16.32;69.78;101114.13;5104431;28;20043;-68
2021/06/07 03:18:27;;;;;;;23.35;19.98;;;;;;;16.41;69.84;101126.13;5104137;28;20040;-67
2021/06/07 03:20:53;;;;;;;23.63;20.67;;;;;;;16.41;69.92;101120.91;5104520;28;20048;-67
2021/06/07 03:23:29;;;;;;;20.98;17.98;;;;;;;16.50;70.04;101134.72;5104982;28;20027;-68
2021/06/07 03:25:54;;;;;;;22.15;18.63;;;;;;;16.57;70.65;101133.66;5104172;28;20038;-68
2021/06/07 03:28:21;;;;;;;25.67;19.85;;;;;;;16.56;70.89;101130.19;5104487;28;20437;-68
2021/06/07 03:30:50;;;;;;;26.48;19.60;;;;;;;16.56;71.09;101129.31;5104547;28;20020;-68
2021/06/07 03:33:17;;;;;;;26.80;20.00;;;;;;;16.59;71.22;101135.38;5104435;28;20019;-68
2021/06/07 03:35:46;;;;;;;25.75;20.83;;;;;;;16.62;71.50;101129.19;5104407;28;20050;-67
2021/06/07 03:38:13;;;;;;;25.55;20.50;;;;;;;16.63;71.71;101130.06;5103697;28;20085;-68
2021/06/07 03:40:41;;;;;;;22.73;19.50;;;;;;;16.68;71.72;101134.28;5103784;28;20103;-69
2021/06/07 03:43:07;;;;;;;25.95;20.50;;;;;;;16.77;71.63;101138.47;5104139;28;20035;-68
2021/06/07 03:45:33;;;;;;;24.45;20.70;;;;;;;16.86;71.56;101140.03;5103840;28;20075;-68
2021/06/07 03:47:59;;;;;;;27.55;21.60;;;;;;;16.91;71.11;101142.53;5102780;28;20012;-67
2021/06/07 03:50:27;;;;;;;28.52;22.63;;;;;;;16.99;70.97;101143.22;5103848;28;20016;-67
2021/06/07 03:52:53;;;;;;;26.33;21.25;;;;;;;17.05;70.82;101148.31;5103983;28;20024;-67
2021/06/07 03:55:20;;;;;;;26.25;21.23;;;;;;;17.11;70.96;101146.50;5104002;28;20043;-68
2021/06/07 03:57:46;;;;;;;24.85;19.55;;;;;;;17.16;70.86;101139.34;5103804;28;20016;-68
2021/06/07 04:00:15;;;;;;;26.15;22.63;;;;;;;17.20;70.76;101136.59;5103791;28;20111;-68
2021/06/07 04:02:42;;;;;;;26.02;22.02;;;;;;;17.17;70.59;101126.19;5103919;28;20085;-69
2021/06/07 04:05:09;;;;;;;27.88;20.75;;;;;;;17.28;70.72;101144.31;5103700;28;20080;-68
2021/06/07 04:07:35;;;;;;;25.35;20.05;;;;;;;17.24;71.06;101134.78;5103479;28;20030;-68
2021/06/07 04:10:04;;;;;;;24.08;19.95;;;;;;;17.30;71.01;101150.38;5103419;28;20044;-68
2021/06/07 04:12:30;;;;;;;23.80;19.88;;;;;;;17.33;70.92;101144.19;5103358;28;20020;-69
2021/06/07 04:14:56;;;;;;;26.23;18.33;;;;;;;17.45;70.85;101148.25;5102233;28;20027;-70
2021/06/07 04:17:21;;;;;;;28.00;19.65;;;;;;;17.54;70.79;101155.06;5103145;28;20064;-68
2021/06/07 04:19:46;;;;;;;24.90;19.02;;;;;;;17.58;71.00;101147.06;5103313;28;20047;-68
2021/06/07 04:22:12;;;;;;;32.50;22.38;;;;;;;17.62;70.80;101147.81;5107447;28;20055;-69
2021/06/07 04:24:37;;;;;;;30.20;20.52;;;;;;;17.70;70.90;101145.88;5107607;28;20484;-68
2021/06/07 04:27:04;;;;;;;29.05;21.38;;;;;;;17.82;70.92;101138.56;5106819;28;20034;-69
2021/06/07 04:29:29;;;;;;;24.83;19.40;;;;;;;18.11;70.60;101144.78;5107086;28;20020;-70
2021/06/07 04:31:54;;;;;;;24.85;20.10;;;;;;;18.36;70.14;101136.22;5106975;28;20052;-70
2021/06/07 04:34:20;;;;;;;28.55;20.65;;;;;;;18.76;69.30;101142.03;5105403;28;20032;-69
2021/06/07 04:36:45;;;;;;;24.30;20.38;;;;;;;18.94;68.27;101143.22;5107351;28;20032;-70
2021/06/07 04:39:11;;;;;;;21.67;14.85;;;;;;;19.11;66.86;101138.34;5106908;28;20024;-68
2021/06/07 04:41:36;;;;;;;17.27;14.82;;;;;;;19.17;65.39;101143.41;5106904;28;20251;-68
2021/06/07 04:44:02;;;;;;;16.35;12.57;;;;;;;19.16;64.55;101145.19;5107207;28;20412;-70
2021/06/07 04:46:27;;;;;;;15.05;11.68;;;;;;;18.99;63.66;101142.22;5107155;28;20024;-70
2021/06/07 04:48:53;;;;;;;15.10;12.93;;;;;;;18.77;65.04;101143.72;5107114;28;20050;-72
2021/06/07 04:51:18;;;;;;;13.25;10.85;;;;;;;18.56;65.63;101134.75;5107113;28;20016;-73
2021/06/07 04:53:44;;;;;;;16.83;11.60;;;;;;;18.32;65.64;101132.78;5107245;28;20020;-75
2021/06/07 04:56:10;;;;;;;11.88;10.52;;;;;;;18.11;65.98;101138.66;5106958;28;20115;-74
2021/06/07 04:58:36;;;;;;;12.80;10.02;;;;;;;17.88;66.32;101132.25;5106741;28;20055;-73
2021/06/07 05:01:08;;;;;;;11.65;9.43;;;;;;;17.72;66.26;101143.19;5107067;28;20099;-72
2021/06/07 05:03:33;;;;;;;13.77;10.68;;;;;;;17.45;66.71;101135.13;5106902;28;20019;-71
2021/06/07 05:06:00;;;;;;;11.38;9.52;;;;;;;17.37;67.06;101139.72;5106835;28;20433;-71
2021/06/07 05:08:27;;;;;;;9.02;7.57;;;;;;;17.32;66.96;101147.69;5105504;28;20031;-71
2021/06/07 05:10:53;;;;;;;10.25;7.47;;;;;;;17.17;66.65;101126.19;5105055;28;20020;-71
2021/06/07 05:13:19;;;;;;;9.52;8.20;;;;;;;17.14;66.53;101131.50;5106883;28;20026;-71
2021/06/07 05:15:45;;;;;;;9.23;7.43;;;;;;;17.07;66.51;101141.28;5106703;28;20048;-70
2021/06/07 05:18:11;;;;;;;10.85;7.97;;;;;;;17.03;66.35;101150.09;5106332;28;20052;-70
2021/06/07 05:20:38;;;;;;;10.52;7.13;;;;;;;17.06;66.33;101141.31;5106494;28;20023;-69
2021/06/07 05:23:04;;;;;;;9.02;7.63;;;;;;;16.93;66.75;101133.72;5106589;28;20035;-69
2021/06/07 05:25:31;;;;;;;8.38;7.13;;;;;;;17.08;66.74;101152.66;5106527;28;20024;-70
2021/06/07 05:27:58;;;;;;;12.77;8.05;;;;;;;17.08;66.94;101153.53;5105774;28;20039;-70
2021/06/07 05:30:26;;;;;;;10.13;7.28;;;;;;;17.11;67.29;101152.56;5105821;28;20020;-70
2021/06/07 05:32:53;;;;;;;14.25;8.32;;;;;;;17.04;67.11;101141.38;5104883;28;20058;-69
2021/06/07 05:35:20;;;;;;;10.57;8.27;;;;;;;17.14;67.10;101149.03;5106332;28;20020;-70
2021/06/07 05:37:46;;;;;;;13.90;7.88;;;;;;;17.15;67.11;101150.75;5106273;28;20051;-69
2021/06/07 05:40:13;;;;;;;9.20;7.35;;;;;;;17.14;67.14;101149.03;5106197;28;20386;-69
2021/06/07 05:42:39;;;;;;;9.70;7.88;;;;;;;17.13;67.33;101147.28;5105796;28;20383;-69
2021/06/07 05:45:07;;;;;;;9.90;7.97;;;;;;;17.22;67.24;101154.97;5106089;28;20028;-69
2021/06/07 05:47:32;;;;;;;11.65;8.32;;;;;;;17.23;67.04;101146.19;5106161;28;20024;-69
2021/06/07 05:49:58;;;;;;;9.85;8.13;;;;;;;17.22;67.23;101150.56;5104517;28;20084;-70
2021/06/07 05:52:23;;;;;;;12.90;9.98;;;;;;;17.22;67.39;101162.84;5104674;28;20024;-70
2021/06/07 05:54:49;;;;;;;12.40;9.70;;;;;;;17.19;67.62;101170.75;5106002;28;20030;-70
2021/06/07 05:57:14;;;;;;;10.82;9.15;;;;;;;17.09;67.88;101157.84;5105832;28;20016;-69
2021/06/07 05:59:40;;;;;;;11.80;9.63;;;;;;;17.02;68.57;101171.13;5105624;28;20434;-70
2021/06/07 06:02:09;;;;;;;12.00;10.75;;;;;;;16.96;68.93;101167.75;5104357;28;20024;-70
2021/06/07 06:04:34;;;;;;;13.85;10.43;;;;;;;16.91;69.09;101172.25;5105717;28;20068;-70
2021/06/07 06:07:00;;;;;;;15.73;11.48;;;;;;;16.82;69.75;101168.06;5105765;28;20513;-70
2021/06/07 06:09:26;;;;;;;15.05;11.30;;;;;;;16.84;70.11;101175.91;5105405;28;20027;-70
2021/06/07 06:11:52;;;;;;;13.18;11.35;;;;;;;16.84;70.27;101175.91;5105249;28;20038;-70
2021/06/07 06:14:17;;;;;;;13.80;11.70;;;;;;;16.88;70.27;101176.69;5105236;28;20055;-69
2021/06/07 06:16:43;;;;;;;14.57;11.88;;;;;;;16.88;70.56;101179.31;5104019;28;20051;-70
2021/06/07 06:19:11;;;;;;;13.57;10.43;;;;;;;16.92;70.79;101184.47;5104899;28;20103;-69
2021/06/07 06:21:39;;;;;;;13.43;10.77;;;;;;;16.94;71.34;101181.81;5105045;28;20050;-70
2021/06/07 06:24:06;;;;;;;12.57;10.38;;;;;;;16.95;71.51;101183.50;5105212;28;20069;-70
2021/06/07 06:26:32;;;;;;;15.50;10.80;;;;;;;17.01;71.61;101182.53;5104779;28;20085;-70
2021/06/07 06:28:58;;;;;;;15.52;10.18;;;;;;;17.11;71.56;101185.84;5104960;28;20020;-70
2021/06/07 06:31:23;;;;;;;15.35;11.60;;;;;;;17.13;71.47;101187.53;5103613;28;20062;-70
2021/06/07 06:33:49;;;;;;;18.60;13.55;;;;;;;17.25;71.81;101191.63;5104911;28;20028;-71
2021/06/07 06:36:14;;;;;;;18.45;15.57;;;;;;;17.37;71.82;101193.06;5103501;28;20443;-70
2021/06/07 06:38:40;;;;;;;22.67;14.63;;;;;;;17.44;72.01;101193.78;5104755;28;20024;-71
2021/06/07 06:41:05;;;;;;;23.08;15.75;;;;;;;17.57;71.70;101192.56;5104430;28;20035;-70
2021/06/07 06:43:31;;;;;;;23.42;17.55;;;;;;;17.74;71.46;101188.66;5104277;28;20080;-71
2021/06/07 06:45:57;;;;;;;23.48;19.25;;;;;;;17.88;71.30;101197.94;5104509;28;20032;-70
2021/06/07 06:48:22;;;;;;;26.90;21.05;;;;;;;18.02;70.27;101198.44;5104528;28;20027;-69
2021/06/07 06:50:47;;;;;;;30.90;23.98;;;;;;;18.09;69.62;101186.88;5104904;28;20054;-70
2021/06/07 06:53:17;;;;;;;30.80;23.00;;;;;;;18.17;69.82;101189.31;5104712;28;20038;-70
2021/06/07 06:55:45;;;;;;;26.17;22.52;;;;;;;18.31;69.39;101198.56;5104184;28;20090;-69
2021/06/07 06:58:10;;;;;;;26.52;22.10;;;;;;;18.52;69.30;101198.84;5104432;28;20024;-70
2021/06/07 07:00:37;;;;;;;30.73;23.50;;;;;;;18.70;68.35;101202.72;5104315;28;20031;-69
2021/06/07 07:03:04;;;;;;;30.23;22.00;;;;;;;18.86;68.20;101205.75;5104295;28;20061;-70
2021/06/07 07:05:30;;;;;;;25.45;21.63;;;;;;;18.91;67.73;101198.53;5103032;28;20024;-70
2021/06/07 07:07:55;;;;;;;29.20;24.00;;;;;;;18.99;67.40;101207.97;5104234;28;20083;-71
2021/06/07 07:10:20;;;;;;;34.65;25.60;;;;;;;18.97;67.41;101208.03;5104263;28;20012;-70
2021/06/07 07:12:47;;;;;;;34.58;26.88;;;;;;;18.90;67.32;101212.63;5103976;28;20423;-70
2021/06/07 07:15:13;;;;;;;33.90;25.42;;;;;;;18.73;67.54;101205.25;5104548;28;20056;-70
2021/06/07 07:17:38;;;;;;;35.42;26.52;;;;;;;18.62;68.02;101212.59;5104026;28;20592;-69
2021/06/07 07:20:05;;;;;;;35.22;26.77;;;;;;;18.48;68.32;101213.00;5102561;28;20031;-70
2021/06/07 07:22:30;;;;;;;37.13;25.63;;;;;;;18.35;68.81;101210.72;5102513;28;20116;-70
2021/06/07 07:24:56;;;;;;;30.88;24.70;;;;;;;18.23;68.75;101205.81;5103967;28;20020;-69
2021/06/07 07:27:21;;;;;;;27.52;22.17;;;;;;;18.07;68.57;101206.19;5103648;28;20043;-69
2021/06/07 07:29:47;;;;;;;26.45;21.30;;;;;;;18.00;68.16;101213.38;5103718;28;20013;-70
2021/06/07 07:32:13;;;;;;;28.30;20.40;;;;;;;17.93;68.94;101214.44;5103869;28;20020;-70
2021/06/07 07:34:40;;;;;;;25.00;18.77;;;;;;;17.89;69.21;101212.81;5104063;28;20039;-69
2021/06/07 07:37:06;;;;;;;24.58;20.35;;;;;;;17.86;69.33;101218.97;5103731;28;20020;-69
2021/06/07 07:39:31;;;;;;;29.95;23.52;;;;;;;17.78;69.72;101216.56;5103635;28;20028;-72
2021/06/07 07:41:57;;;;;;;29.55;24.02;;;;;;;17.69;70.36;101220.28;5101968;28;20020;-72
2021/06/07 07:44:23;;;;;;;32.28;25.13;;;;;;;17.63;70.70;101220.44;5103672;28;20020;-74
2021/06/07 07:46:49;;;;;;;25.13;20.55;;;;;;;17.56;69.94;101222.38;5103778;28;20020;-73
2021/06/07 07:49:14;;;;;;;25.48;20.20;;;;;;;17.40;69.91;101223.63;5103814;28;20027;-70
2021/06/07 07:51:41;;;;;;;22.88;19.67;;;;;;;17.22;70.05;101215.31;5103910;28;20102;-72
2021/06/07 07:54:08;;;;;;;23.23;19.30;;;;;;;17.23;70.51;101219.66;5103435;28;20035;-70
2021/06/07 07:56:34;;;;;;;24.17;20.02;;;;;;;17.15;70.86;101221.59;5102609;28;20020;-72
2021/06/07 07:59:00;;;;;;;26.80;20.80;;;;;;;17.22;70.97;101225.81;5103549;28;20023;-71
2021/06/07 08:01:26;;;;;;;27.80;22.75;;;;;;;17.27;70.91;101225.69;5103393;28;20020;-71
2021/06/07 08:03:53;;;;;;;27.33;21.50;;;;;;;17.37;71.03;101229.81;5103289;28;20016;-71
2021/06/07 08:06:19;;;;;;;30.60;21.15;;;;;;;17.43;70.97;101227.03;5103641;28;20028;-71
2021/06/07 08:08:44;;;;;;;29.40;20.35;;;;;;;17.54;70.64;101229.41;5103022;28;20036;-71
2021/06/07 08:11:11;;;;;;;22.65;18.15;;;;;;;17.61;70.21;101230.13;5103214;28;20017;-70
2021/06/07 08:13:37;;;;;;;19.13;15.90;;;;;;;17.60;69.49;101228.41;5103508;28;20031;-71
2021/06/07 08:16:03;;;;;;;19.55;15.20;;;;;;;17.61;69.01;101237.13;5103612;28;20020;-70
2021/06/07 08:18:28;;;;;;;20.85;15.07;;;;;;;17.49;69.00;101233.06;5103221;28;20048;-71
2021/06/07 08:20:54;;;;;;;20.52;14.50;;;;;;;17.48;68.87;101233.97;5103418;28;20044;-71
2021/06/07 08:23:19;;;;;;;14.93;12.40;;;;;;;17.31;68.75;101237.84;5103447;28;20028;-71
2021/06/07 08:25:44;;;;;;;14.90;11.40;;;;;;;17.24;68.06;101247.59;5103380;28;20020;-71
2021/06/07 08:28:10;;;;;;;14.32;11.40;;;;;;;17.03;68.23;101233.22;5101678;28;20070;-70
2021/06/07 08:30:36;;;;;;;16.63;11.35;;;;;;;16.92;68.96;101236.91;5103593;28;20080;-70
2021/06/07 08:33:03;;;;;;;14.95;11.48;;;;;;;16.96;69.48;101246.44;5102158;28;20031;-70
2021/06/07 08:35:29;;;;;;;12.20;8.75;;;;;;;16.98;69.40;101241.19;5103290;28;20020;-69
2021/06/07 08:37:54;;;;;;;12.52;8.63;;;;;;;16.95;69.15;101243.84;5103303;28;20045;-70
2021/06/07 08:40:20;;;;;;;14.18;9.05;;;;;;;16.90;68.81;101237.84;5103370;28;20125;-71
2021/06/07 08:42:46;;;;;;;9.98;8.50;;;;;;;16.87;69.04;101240.53;5103052;28;20028;-71
2021/06/07 08:45:20;;;;;;;11.13;8.52;;;;;;;16.88;68.77;101247.50;5102225;28;20243;-70
2021/06/07 08:47:47;;;;;;;13.55;8.23;;;;;;;16.89;68.81;101243.97;5103483;28;20020;-70
2021/06/07 08:50:15;;;;;;;12.13;8.75;;;;;;;16.94;68.35;101243.00;5103178;28;20356;-71
2021/06/07 08:52:43;;;;;;;13.30;9.15;;;;;;;16.97;68.22;101236.81;5102894;28;20048;-71
2021/06/07 08:55:13;;;;;;;12.68;8.07;;;;;;;17.03;68.24;101244.53;5101479;28;20020;-70
2021/06/07 08:57:46;;;;;;;12.85;7.85;;;;;;;17.25;68.09;101243.22;5103034;28;20028;-70
2021/06/07 09:00:15;;;;;;;8.13;5.82;;;;;;;17.49;67.50;101252.31;5102933;28;20024;-70
2021/06/07 09:02:42;;;;;;;8.68;6.25;;;;;;;17.76;66.25;101236.78;5101800;28;20048;-70
2021/06/07 09:05:08;;;;;;;8.35;4.80;;;;;;;18.03;65.30;101236.94;5103306;28;20027;-70
2021/06/07 09:07:50;;;;;;;6.75;4.88;;;;;;;18.25;63.70;101238.16;5106099;28;20030;-70
2021/06/07 09:10:15;;;;;;;8.33;4.80;;;;;;;18.48;62.83;101226.13;5106597;28;20388;-70
2021/06/07 09:12:45;;;;;;;6.45;4.82;;;;;;;18.63;62.64;101233.56;5106483;28;20263;-70
2021/06/07 09:15:30;;;;;;;8.32;4.88;;;;;;;18.63;61.73;101230.94;5106634;28;20024;-70
2021/06/07 09:17:57;;;;;;;9.75;5.03;;;;;;;18.69;61.80;101228.13;5106078;28;20043;-70
2021/06/07 09:20:23;;;;;;;9.00;5.47;;;;;;;18.64;60.70;101223.94;5106570;28;20036;-68
2021/06/07 09:23:05;;;;;;;7.47;4.78;;;;;;;18.55;60.74;101218.03;5106684;28;20536;-70
2021/06/07 09:25:44;;;;;;;8.93;5.47;;;;;;;18.53;60.75;101219.81;5106630;28;20024;-70
2021/06/07 09:28:21;;;;;;;7.88;5.05;;;;;;;18.41;60.89;101214.94;5106260;28;20080;-70
2021/06/07 09:30:46;;;;;;;6.70;5.07;;;;;;;18.32;61.05;101218.69;5105167;28;20061;-70
2021/06/07 09:33:27;;;;;;;7.15;5.28;;;;;;;18.28;62.04;101215.28;5106512;28;20028;-70
2021/06/07 09:36:20;;;;;;;8.93;5.05;;;;;;;18.30;61.32;101218.75;5106199;28;20095;-71
2021/06/07 09:38:54;;;;;;;5.03;4.05;;;;;;;18.25;61.22;101219.75;5106661;28;20020;-69
2021/06/07 09:41:20;;;;;;;6.43;4.15;;;;;;;18.19;60.91;101213.78;5105924;28;20024;-70
2021/06/07 09:43:50;;;;;;;7.00;4.53;;;;;;;18.29;60.21;101217.00;5106216;28;20085;-69
2021/06/07 09:46:16;;;;;;;7.53;4.70;;;;;;;18.35;59.65;101221.22;5106024;28;20063;-70
2021/06/07 09:48:41;;;;;;;5.32;4.35;;;;;;;18.35;59.77;101221.22;5105973;28;20136;-70
2021/06/07 09:51:07;;;;;;;6.47;4.20;;;;;;;18.44;59.77;101225.34;5105975;28;20016;-70
2021/06/07 09:53:48;;;;;;;7.65;4.55;;;;;;;18.53;59.85;101230.34;5104487;28;20027;-69
2021/06/07 09:56:14;;;;;;;7.47;3.78;;;;;;;18.62;59.11;101223.97;5105535;28;20027;-70
2021/06/07 09:58:40;;;;;;;3.85;3.35;;;;;;;18.69;58.13;101220.25;5105652;28;20050;-70
2021/06/07 10:01:20;;;;;;;3.97;3.22;;;;;;;18.81;56.68;101229.56;5105616;28;20034;-70
2021/06/07 10:03:54;;;;;;;5.63;3.22;;;;;;;18.92;55.99;101226.59;5105763;28;20119;-70
2021/06/07 10:06:19;;;;;;;4.38;2.33;;;;;;;19.04;53.42;101230.59;5105485;28;20494;-70
2021/06/07 10:08:52;;;;;;;5.03;2.65;;;;;;;19.05;53.00;101219.19;5105379;28;20016;-70
2021/06/07 10:11:22;;;;;;;4.38;2.30;;;;;;;19.08;52.82;101228.75;5103786;28;20020;-70
2021/06/07 10:13:49;;;;;;;3.38;2.17;;;;;;;19.03;52.17;101228.88;5105570;28;20016;-70
2021/06/07 10:16:15;;;;;;;4.95;2.25;;;;;;;18.93;51.09;101227.47;5105441;28;20028;-70
2021/06/07 10:18:41;;;;;;;5.53;3.45;;;;;;;18.90;51.79;101222.28;5104331;28;20056;-70
2021/06/07 10:21:08;;;;;;;4.90;2.15;;;;;;;18.88;52.35;101222.31;5105431;28;20024;-70
2021/06/07 10:23:34;;;;;;;4.38;2.35;;;;;;;18.92;52.67;101217.81;5104073;28;20020;-70
2021/06/07 10:26:03;;;;;;;4.03;2.35;;;;;;;19.11;52.17;101214.66;5104908;28;20020;-70
2021/06/07 10:28:32;;;;;;;3.75;2.40;;;;;;;19.23;51.87;101214.28;5104661;28;20097;-70
2021/06/07 10:31:09;;;;;;;7.88;2.58;;;;;;;19.22;52.47;101216.97;5105008;28;20035;-70
2021/06/07 10:33:37;;;;;;;4.28;2.42;;;;;;;19.23;52.45;101213.41;5105175;28;20024;-70
2021/06/07 10:36:21;;;;;;;8.77;2.50;;;;;;;19.19;52.73;101221.41;5104826;28;20028;-70
2021/06/07 10:38:47;;;;;;;3.88;2.17;;;;;;;19.16;53.10;101218.00;5104910;28;20035;-71
2021/06/07 10:41:19;;;;;;;5.20;2.45;;;;;;;19.22;52.81;101212.53;5104403;28;20036;-70
2021/06/07 10:43:46;;;;;;;4.30;2.17;;;;;;;19.17;52.20;101214.50;5103126;28;20035;-71
2021/06/07 10:46:35;;;;;;;3.38;1.77;;;;;;;18.97;51.59;101213.28;5104811;28;20024;-71
2021/06/07 10:49:22;;;;;;;4.15;1.60;;;;;;;18.83;50.84;101214.56;5104593;28;20456;-70
2021/06/07 10:52:25;;;;;;;2.78;1.70;;;;;;;18.88;51.27;101208.31;5104619;28;20028;-71
2021/06/07 10:55:10;;;;;;;4.97;2.20;;;;;;;18.95;51.15;101201.94;5094389;28;20040;-71
2021/06/07 10:57:37;;;;;;;5.22;1.50;;;;;;;19.11;50.94;101204.13;5104456;28;20088;-70
2021/06/07 11:00:05;;;;;;;5.45;2.05;;;;;;;19.15;51.24;101205.75;5104522;28;20093;-71
2021/06/07 11:02:37;;;;;;;2.03;1.60;;;;;;;19.13;51.36;101199.69;5104681;28;20107;-70
2021/06/07 11:05:27;;;;;;;2.60;1.77;;;;;;;19.05;51.62;101182.34;5104752;28;20032;-71
2021/06/07 11:08:10;;;;;;;3.83;1.33;;;;;;;19.19;50.88;101194.22;5104572;28;20031;-71
2021/06/07 11:10:58;;;;;;;3.53;1.25;;;;;;;19.20;50.38;101193.31;5104370;28;20024;-70
2021/06/07 11:13:24;;;;;;;1.45;0.90;;;;;;;19.26;49.59;101198.41;5104441;28;20027;-70
2021/06/07 11:16:01;;;;;;;1.88;1.10;;;;;;;19.56;49.37;101189.50;5104218;28;20023;-69
2021/06/07 11:18:34;;;;;;;2.40;1.13;;;;;;;20.06;47.83;101190.47;5104032;28;20055;-72